sensor_id;sensor_type;location;lat;lon;timestamp;P1;durP1;ratioP1;P2;durP2;ratioP2
3379;SDS011;1703;51.964;7.642;2024-01-11T00:02:06;40.60;;;19.47;;
3379;SDS011;1703;51.964;7.642;2024-01-11T00:04:33;44.77;;;20.60;;
3379;SDS011;1703;51.964;7.642;2024-01-11T00:07:00;49.65;;;26.55;;
3379;SDS011;1703;51.964;7.642;2024-01-11T00:09:27;39.27;;;21.33;;
3379;SDS011;1703;51.964;7.642;2024-01-11T00:11:54;47.10;;;22.37;;
3379;SDS011;1703;51.964;7.642;2024-01-11T00:14:21;39.53;;;18.57;;
3379;SDS011;1703;51.964;7.642;2024-01-11T00:16:47;55.13;;;20.63;;
3379;SDS011;1703;51.964;7.642;2024-01-11T00:19:15;30.33;;;17.30;;
3379;SDS011;1703;51.964;7.642;2024-01-11T00:21:42;43.63;;;20.20;;
3379;SDS011;1703;51.964;7.642;2024-01-11T00:24:09;39.60;;;20.77;;
3379;SDS011;1703;51.964;7.642;2024-01-11T00:26:36;40.63;;;21.10;;
3379;SDS011;1703;51.964;7.642;2024-01-11T00:29:03;36.87;;;18.70;;
3379;SDS011;1703;51.964;7.642;2024-01-11T00:31:29;46.63;;;21.93;;
3379;SDS011;1703;51.964;7.642;2024-01-11T00:33:56;46.73;;;19.60;;
3379;SDS011;1703;51.964;7.642;2024-01-11T00:36:24;61.17;;;22.50;;
3379;SDS011;1703;51.964;7.642;2024-01-11T00:38:51;44.00;;;21.37;;
3379;SDS011;1703;51.964;7.642;2024-01-11T00:41:18;34.83;;;18.40;;
3379;SDS011;1703;51.964;7.642;2024-01-11T00:43:45;42.37;;;18.50;;
3379;SDS011;1703;51.964;7.642;2024-01-11T00:46:11;45.47;;;21.60;;
3379;SDS011;1703;51.964;7.642;2024-01-11T00:48:38;43.53;;;17.97;;
3379;SDS011;1703;51.964;7.642;2024-01-11T00:51:07;43.40;;;22.17;;
3379;SDS011;1703;51.964;7.642;2024-01-11T00:53:35;37.90;;;18.73;;
3379;SDS011;1703;51.964;7.642;2024-01-11T00:56:02;33.57;;;19.03;;
3379;SDS011;1703;51.964;7.642;2024-01-11T00:58:29;41.20;;;21.67;;
3379;SDS011;1703;51.964;7.642;2024-01-11T01:00:56;36.60;;;19.63;;
3379;SDS011;1703;51.964;7.642;2024-01-11T01:03:23;41.93;;;18.93;;
3379;SDS011;1703;51.964;7.642;2024-01-11T01:05:50;42.63;;;18.53;;
3379;SDS011;1703;51.964;7.642;2024-01-11T01:08:16;37.90;;;19.07;;
3379;SDS011;1703;51.964;7.642;2024-01-11T01:10:44;37.80;;;19.33;;
3379;SDS011;1703;51.964;7.642;2024-01-11T01:13:11;42.30;;;20.20;;
3379;SDS011;1703;51.964;7.642;2024-01-11T01:15:38;39.30;;;17.67;;
3379;SDS011;1703;51.964;7.642;2024-01-11T01:18:05;41.97;;;19.73;;
3379;SDS011;1703;51.964;7.642;2024-01-11T01:20:32;36.97;;;17.60;;
3379;SDS011;1703;51.964;7.642;2024-01-11T01:22:58;34.60;;;20.53;;
3379;SDS011;1703;51.964;7.642;2024-01-11T01:25:26;42.43;;;18.27;;
3379;SDS011;1703;51.964;7.642;2024-01-11T01:27:54;37.47;;;16.57;;
3379;SDS011;1703;51.964;7.642;2024-01-11T01:30:21;44.60;;;18.40;;
3379;SDS011;1703;51.964;7.642;2024-01-11T01:32:49;37.80;;;19.80;;
3379;SDS011;1703;51.964;7.642;2024-01-11T01:35:16;41.03;;;17.77;;
3379;SDS011;1703;51.964;7.642;2024-01-11T01:37:42;36.80;;;18.47;;
3379;SDS011;1703;51.964;7.642;2024-01-11T01:40:09;38.70;;;18.23;;
3379;SDS011;1703;51.964;7.642;2024-01-11T01:42:40;33.60;;;15.93;;
3379;SDS011;1703;51.964;7.642;2024-01-11T01:45:09;37.90;;;18.93;;
3379;SDS011;1703;51.964;7.642;2024-01-11T01:47:38;49.60;;;20.03;;
3379;SDS011;1703;51.964;7.642;2024-01-11T01:50:07;39.93;;;17.90;;
3379;SDS011;1703;51.964;7.642;2024-01-11T01:52:35;40.23;;;17.30;;
3379;SDS011;1703;51.964;7.642;2024-01-11T01:55:04;28.33;;;16.80;;
3379;SDS011;1703;51.964;7.642;2024-01-11T01:57:32;36.93;;;18.00;;
3379;SDS011;1703;51.964;7.642;2024-01-11T02:00:01;47.53;;;20.47;;
3379;SDS011;1703;51.964;7.642;2024-01-11T02:02:38;34.50;;;18.13;;
3379;SDS011;1703;51.964;7.642;2024-01-11T02:05:08;35.17;;;19.10;;
3379;SDS011;1703;51.964;7.642;2024-01-11T02:07:35;33.73;;;21.00;;
3379;SDS011;1703;51.964;7.642;2024-01-11T02:10:03;34.27;;;17.80;;
3379;SDS011;1703;51.964;7.642;2024-01-11T02:12:30;38.40;;;18.07;;
3379;SDS011;1703;51.964;7.642;2024-01-11T02:14:57;38.70;;;18.23;;
3379;SDS011;1703;51.964;7.642;2024-01-11T02:17:24;31.83;;;17.50;;
3379;SDS011;1703;51.964;7.642;2024-01-11T02:19:52;39.43;;;18.23;;
3379;SDS011;1703;51.964;7.642;2024-01-11T02:22:20;40.60;;;20.43;;
3379;SDS011;1703;51.964;7.642;2024-01-11T02:24:51;46.03;;;21.77;;
3379;SDS011;1703;51.964;7.642;2024-01-11T02:27:18;36.73;;;19.50;;
3379;SDS011;1703;51.964;7.642;2024-01-11T02:29:45;39.23;;;19.27;;
3379;SDS011;1703;51.964;7.642;2024-01-11T02:32:12;31.90;;;15.77;;
3379;SDS011;1703;51.964;7.642;2024-01-11T02:34:39;36.67;;;19.57;;
3379;SDS011;1703;51.964;7.642;2024-01-11T02:37:06;34.77;;;19.60;;
3379;SDS011;1703;51.964;7.642;2024-01-11T02:39:33;41.77;;;20.63;;
3379;SDS011;1703;51.964;7.642;2024-01-11T02:42:01;28.93;;;15.27;;
3379;SDS011;1703;51.964;7.642;2024-01-11T02:44:28;38.93;;;17.13;;
3379;SDS011;1703;51.964;7.642;2024-01-11T02:46:55;33.83;;;17.80;;
3379;SDS011;1703;51.964;7.642;2024-01-11T02:49:22;44.80;;;18.07;;
3379;SDS011;1703;51.964;7.642;2024-01-11T02:51:49;35.90;;;17.57;;
3379;SDS011;1703;51.964;7.642;2024-01-11T02:54:15;48.63;;;18.70;;
3379;SDS011;1703;51.964;7.642;2024-01-11T02:56:42;35.77;;;16.97;;
3379;SDS011;1703;51.964;7.642;2024-01-11T02:59:10;34.77;;;17.37;;
3379;SDS011;1703;51.964;7.642;2024-01-11T03:01:37;38.97;;;18.97;;
3379;SDS011;1703;51.964;7.642;2024-01-11T03:04:05;36.27;;;17.77;;
3379;SDS011;1703;51.964;7.642;2024-01-11T03:06:31;31.37;;;16.10;;
3379;SDS011;1703;51.964;7.642;2024-01-11T03:08:58;30.40;;;16.60;;
3379;SDS011;1703;51.964;7.642;2024-01-11T03:11:25;35.43;;;17.80;;
3379;SDS011;1703;51.964;7.642;2024-01-11T03:13:52;41.20;;;18.63;;
3379;SDS011;1703;51.964;7.642;2024-01-11T03:16:20;48.83;;;20.43;;
3379;SDS011;1703;51.964;7.642;2024-01-11T03:18:47;34.53;;;17.40;;
3379;SDS011;1703;51.964;7.642;2024-01-11T03:21:13;39.07;;;20.47;;
3379;SDS011;1703;51.964;7.642;2024-01-11T03:23:40;39.53;;;19.13;;
3379;SDS011;1703;51.964;7.642;2024-01-11T03:26:11;42.60;;;19.90;;
3379;SDS011;1703;51.964;7.642;2024-01-11T03:28:39;41.30;;;18.50;;
3379;SDS011;1703;51.964;7.642;2024-01-11T03:31:06;41.97;;;17.23;;
3379;SDS011;1703;51.964;7.642;2024-01-11T03:33:36;40.33;;;18.00;;
3379;SDS011;1703;51.964;7.642;2024-01-11T03:36:06;43.30;;;18.83;;
3379;SDS011;1703;51.964;7.642;2024-01-11T03:38:33;35.47;;;19.47;;
3379;SDS011;1703;51.964;7.642;2024-01-11T03:41:00;32.57;;;16.17;;
3379;SDS011;1703;51.964;7.642;2024-01-11T03:43:27;35.37;;;16.77;;
3379;SDS011;1703;51.964;7.642;2024-01-11T03:45:54;38.70;;;18.03;;
3379;SDS011;1703;51.964;7.642;2024-01-11T03:48:21;32.43;;;16.90;;
3379;SDS011;1703;51.964;7.642;2024-01-11T03:50:49;40.97;;;16.80;;
3379;SDS011;1703;51.964;7.642;2024-01-11T03:53:16;41.37;;;18.30;;
3379;SDS011;1703;51.964;7.642;2024-01-11T03:55:43;36.57;;;16.20;;
3379;SDS011;1703;51.964;7.642;2024-01-11T03:58:10;32.53;;;16.77;;
3379;SDS011;1703;51.964;7.642;2024-01-11T04:00:37;42.70;;;16.40;;
3379;SDS011;1703;51.964;7.642;2024-01-11T04:03:03;39.13;;;17.30;;
3379;SDS011;1703;51.964;7.642;2024-01-11T04:05:32;36.30;;;15.80;;
3379;SDS011;1703;51.964;7.642;2024-01-11T04:08:02;34.47;;;17.47;;
3379;SDS011;1703;51.964;7.642;2024-01-11T04:10:30;30.20;;;16.70;;
3379;SDS011;1703;51.964;7.642;2024-01-11T04:12:56;40.20;;;16.50;;
3379;SDS011;1703;51.964;7.642;2024-01-11T04:15:23;29.83;;;17.00;;
3379;SDS011;1703;51.964;7.642;2024-01-11T04:17:50;39.30;;;16.90;;
3379;SDS011;1703;51.964;7.642;2024-01-11T04:20:17;32.60;;;17.90;;
3379;SDS011;1703;51.964;7.642;2024-01-11T04:22:44;37.10;;;16.83;;
3379;SDS011;1703;51.964;7.642;2024-01-11T04:25:12;44.13;;;20.43;;
3379;SDS011;1703;51.964;7.642;2024-01-11T04:27:39;32.17;;;15.60;;
3379;SDS011;1703;51.964;7.642;2024-01-11T04:30:06;37.53;;;17.47;;
3379;SDS011;1703;51.964;7.642;2024-01-11T04:32:33;32.97;;;18.70;;
3379;SDS011;1703;51.964;7.642;2024-01-11T04:35:00;36.03;;;16.27;;
3379;SDS011;1703;51.964;7.642;2024-01-11T04:37:27;34.03;;;16.87;;
3379;SDS011;1703;51.964;7.642;2024-01-11T04:39:54;33.13;;;17.23;;
3379;SDS011;1703;51.964;7.642;2024-01-11T04:42:26;31.80;;;16.97;;
3379;SDS011;1703;51.964;7.642;2024-01-11T04:44:53;37.43;;;17.77;;
3379;SDS011;1703;51.964;7.642;2024-01-11T04:47:20;37.93;;;16.23;;
3379;SDS011;1703;51.964;7.642;2024-01-11T04:49:47;37.90;;;17.03;;
3379;SDS011;1703;51.964;7.642;2024-01-11T04:52:13;37.03;;;17.13;;
3379;SDS011;1703;51.964;7.642;2024-01-11T04:54:40;40.43;;;17.17;;
3379;SDS011;1703;51.964;7.642;2024-01-11T04:57:07;42.70;;;17.87;;
3379;SDS011;1703;51.964;7.642;2024-01-11T04:59:35;33.30;;;18.10;;
3379;SDS011;1703;51.964;7.642;2024-01-11T05:02:02;39.93;;;16.10;;
3379;SDS011;1703;51.964;7.642;2024-01-11T05:04:29;28.27;;;16.17;;
3379;SDS011;1703;51.964;7.642;2024-01-11T05:06:56;33.97;;;15.57;;
3379;SDS011;1703;51.964;7.642;2024-01-11T05:09:22;25.90;;;15.27;;
3379;SDS011;1703;51.964;7.642;2024-01-11T05:11:49;35.57;;;15.93;;
3379;SDS011;1703;51.964;7.642;2024-01-11T05:14:16;31.83;;;16.90;;
3379;SDS011;1703;51.964;7.642;2024-01-11T05:16:44;41.27;;;17.27;;
3379;SDS011;1703;51.964;7.642;2024-01-11T05:19:11;41.73;;;18.83;;
3379;SDS011;1703;51.964;7.642;2024-01-11T05:21:38;31.30;;;15.50;;
3379;SDS011;1703;51.964;7.642;2024-01-11T05:24:04;32.87;;;19.10;;
3379;SDS011;1703;51.964;7.642;2024-01-11T05:26:31;34.67;;;17.53;;
3379;SDS011;1703;51.964;7.642;2024-01-11T05:28:58;34.03;;;16.97;;
3379;SDS011;1703;51.964;7.642;2024-01-11T05:31:25;35.60;;;15.90;;
3379;SDS011;1703;51.964;7.642;2024-01-11T05:33:53;27.30;;;15.80;;
3379;SDS011;1703;51.964;7.642;2024-01-11T05:36:20;42.20;;;18.00;;
3379;SDS011;1703;51.964;7.642;2024-01-11T05:38:47;29.50;;;14.73;;
3379;SDS011;1703;51.964;7.642;2024-01-11T05:41:14;41.17;;;17.50;;
3379;SDS011;1703;51.964;7.642;2024-01-11T05:43:41;31.07;;;16.50;;
3379;SDS011;1703;51.964;7.642;2024-01-11T05:46:09;35.73;;;19.30;;
3379;SDS011;1703;51.964;7.642;2024-01-11T05:48:36;40.00;;;18.50;;
3379;SDS011;1703;51.964;7.642;2024-01-11T05:51:04;34.23;;;17.27;;
3379;SDS011;1703;51.964;7.642;2024-01-11T05:53:31;31.27;;;15.17;;
3379;SDS011;1703;51.964;7.642;2024-01-11T05:56:00;30.30;;;17.93;;
3379;SDS011;1703;51.964;7.642;2024-01-11T05:58:28;31.33;;;16.50;;
3379;SDS011;1703;51.964;7.642;2024-01-11T06:00:55;30.17;;;14.73;;
3379;SDS011;1703;51.964;7.642;2024-01-11T06:03:22;34.97;;;18.60;;
3379;SDS011;1703;51.964;7.642;2024-01-11T06:05:49;31.13;;;16.47;;
3379;SDS011;1703;51.964;7.642;2024-01-11T06:08:17;26.53;;;15.53;;
3379;SDS011;1703;51.964;7.642;2024-01-11T06:10:43;28.00;;;16.20;;
3379;SDS011;1703;51.964;7.642;2024-01-11T06:13:10;29.50;;;15.70;;
3379;SDS011;1703;51.964;7.642;2024-01-11T06:15:37;26.17;;;16.57;;
3379;SDS011;1703;51.964;7.642;2024-01-11T06:18:04;31.37;;;15.10;;
3379;SDS011;1703;51.964;7.642;2024-01-11T06:20:31;31.23;;;17.40;;
3379;SDS011;1703;51.964;7.642;2024-01-11T06:22:57;27.80;;;14.43;;
3379;SDS011;1703;51.964;7.642;2024-01-11T06:25:26;29.87;;;15.37;;
3379;SDS011;1703;51.964;7.642;2024-01-11T06:27:52;32.17;;;16.73;;
3379;SDS011;1703;51.964;7.642;2024-01-11T06:30:20;44.60;;;17.57;;
3379;SDS011;1703;51.964;7.642;2024-01-11T06:32:47;33.53;;;15.53;;
3379;SDS011;1703;51.964;7.642;2024-01-11T06:35:13;28.80;;;16.40;;
3379;SDS011;1703;51.964;7.642;2024-01-11T06:37:40;29.93;;;15.80;;
3379;SDS011;1703;51.964;7.642;2024-01-11T06:40:07;29.67;;;16.10;;
3379;SDS011;1703;51.964;7.642;2024-01-11T06:42:36;31.13;;;14.27;;
3379;SDS011;1703;51.964;7.642;2024-01-11T06:45:03;31.37;;;16.23;;
3379;SDS011;1703;51.964;7.642;2024-01-11T06:47:30;30.60;;;14.67;;
3379;SDS011;1703;51.964;7.642;2024-01-11T06:49:57;29.80;;;17.87;;
3379;SDS011;1703;51.964;7.642;2024-01-11T06:52:24;33.73;;;17.70;;
3379;SDS011;1703;51.964;7.642;2024-01-11T06:54:51;32.83;;;16.17;;
3379;SDS011;1703;51.964;7.642;2024-01-11T06:57:18;29.80;;;15.23;;
3379;SDS011;1703;51.964;7.642;2024-01-11T06:59:46;38.13;;;16.20;;
3379;SDS011;1703;51.964;7.642;2024-01-11T07:02:13;41.10;;;18.70;;
3379;SDS011;1703;51.964;7.642;2024-01-11T07:04:43;35.47;;;17.67;;
3379;SDS011;1703;51.964;7.642;2024-01-11T07:07:11;39.93;;;16.30;;
3379;SDS011;1703;51.964;7.642;2024-01-11T07:09:38;38.20;;;17.63;;
3379;SDS011;1703;51.964;7.642;2024-01-11T07:12:04;32.67;;;18.27;;
3379;SDS011;1703;51.964;7.642;2024-01-11T07:14:32;36.63;;;18.40;;
3379;SDS011;1703;51.964;7.642;2024-01-11T07:17:00;29.30;;;15.67;;
3379;SDS011;1703;51.964;7.642;2024-01-11T07:19:27;29.47;;;16.50;;
3379;SDS011;1703;51.964;7.642;2024-01-11T07:21:54;34.47;;;15.53;;
3379;SDS011;1703;51.964;7.642;2024-01-11T07:24:21;27.50;;;15.50;;
3379;SDS011;1703;51.964;7.642;2024-01-11T07:26:48;41.83;;;18.57;;
3379;SDS011;1703;51.964;7.642;2024-01-11T07:29:14;41.07;;;17.90;;
3379;SDS011;1703;51.964;7.642;2024-01-11T07:31:41;29.27;;;17.03;;
3379;SDS011;1703;51.964;7.642;2024-01-11T07:34:09;31.60;;;15.17;;
3379;SDS011;1703;51.964;7.642;2024-01-11T07:36:36;38.00;;;17.17;;
3379;SDS011;1703;51.964;7.642;2024-01-11T07:39:03;33.20;;;15.90;;
3379;SDS011;1703;51.964;7.642;2024-01-11T07:41:31;33.87;;;16.27;;
3379;SDS011;1703;51.964;7.642;2024-01-11T07:43:57;33.80;;;16.87;;
3379;SDS011;1703;51.964;7.642;2024-01-11T07:46:25;36.50;;;17.50;;
3379;SDS011;1703;51.964;7.642;2024-01-11T07:48:51;35.73;;;16.17;;
3379;SDS011;1703;51.964;7.642;2024-01-11T07:51:20;25.60;;;14.07;;
3379;SDS011;1703;51.964;7.642;2024-01-11T07:53:46;38.57;;;17.27;;
3379;SDS011;1703;51.964;7.642;2024-01-11T07:56:13;30.67;;;16.20;;
3379;SDS011;1703;51.964;7.642;2024-01-11T07:58:40;31.80;;;15.97;;
3379;SDS011;1703;51.964;7.642;2024-01-11T08:01:07;29.10;;;15.07;;
3379;SDS011;1703;51.964;7.642;2024-01-11T08:03:35;32.73;;;15.23;;
3379;SDS011;1703;51.964;7.642;2024-01-11T08:06:03;34.63;;;16.27;;
3379;SDS011;1703;51.964;7.642;2024-01-11T08:08:33;32.53;;;15.83;;
3379;SDS011;1703;51.964;7.642;2024-01-11T08:11:01;29.07;;;14.90;;
3379;SDS011;1703;51.964;7.642;2024-01-11T08:13:28;36.97;;;15.70;;
3379;SDS011;1703;51.964;7.642;2024-01-11T08:15:56;26.87;;;15.03;;
3379;SDS011;1703;51.964;7.642;2024-01-11T08:18:23;39.77;;;17.80;;
3379;SDS011;1703;51.964;7.642;2024-01-11T08:20:51;30.97;;;16.50;;
3379;SDS011;1703;51.964;7.642;2024-01-11T08:23:18;38.97;;;18.33;;
3379;SDS011;1703;51.964;7.642;2024-01-11T08:25:47;32.40;;;18.63;;
3379;SDS011;1703;51.964;7.642;2024-01-11T08:28:14;31.97;;;15.57;;
3379;SDS011;1703;51.964;7.642;2024-01-11T08:30:40;28.00;;;16.07;;
3379;SDS011;1703;51.964;7.642;2024-01-11T08:33:07;25.23;;;12.87;;
3379;SDS011;1703;51.964;7.642;2024-01-11T08:35:34;28.70;;;16.10;;
3379;SDS011;1703;51.964;7.642;2024-01-11T08:38:01;30.70;;;15.90;;
3379;SDS011;1703;51.964;7.642;2024-01-11T08:40:29;30.97;;;16.33;;
3379;SDS011;1703;51.964;7.642;2024-01-11T08:42:57;27.90;;;14.07;;
3379;SDS011;1703;51.964;7.642;2024-01-11T08:45:24;30.43;;;16.27;;
3379;SDS011;1703;51.964;7.642;2024-01-11T08:47:51;27.10;;;14.20;;
3379;SDS011;1703;51.964;7.642;2024-01-11T08:50:18;29.10;;;15.00;;
3379;SDS011;1703;51.964;7.642;2024-01-11T08:52:46;34.10;;;15.20;;
3379;SDS011;1703;51.964;7.642;2024-01-11T08:55:13;32.60;;;15.97;;
3379;SDS011;1703;51.964;7.642;2024-01-11T08:57:40;24.53;;;14.27;;
3379;SDS011;1703;51.964;7.642;2024-01-11T09:00:11;35.50;;;16.00;;
3379;SDS011;1703;51.964;7.642;2024-01-11T09:02:42;34.43;;;15.67;;
3379;SDS011;1703;51.964;7.642;2024-01-11T09:05:09;29.70;;;16.37;;
3379;SDS011;1703;51.964;7.642;2024-01-11T09:07:36;29.13;;;15.47;;
3379;SDS011;1703;51.964;7.642;2024-01-11T09:10:03;42.30;;;16.60;;
3379;SDS011;1703;51.964;7.642;2024-01-11T09:12:31;36.77;;;18.33;;
3379;SDS011;1703;51.964;7.642;2024-01-11T09:14:59;37.20;;;18.33;;
3379;SDS011;1703;51.964;7.642;2024-01-11T09:17:27;39.60;;;19.23;;
3379;SDS011;1703;51.964;7.642;2024-01-11T09:19:54;33.50;;;17.87;;
3379;SDS011;1703;51.964;7.642;2024-01-11T09:22:21;37.83;;;18.10;;
3379;SDS011;1703;51.964;7.642;2024-01-11T09:24:48;41.20;;;18.57;;
3379;SDS011;1703;51.964;7.642;2024-01-11T09:27:14;34.67;;;18.57;;
3379;SDS011;1703;51.964;7.642;2024-01-11T09:29:44;35.00;;;19.27;;
3379;SDS011;1703;51.964;7.642;2024-01-11T09:32:12;35.27;;;15.93;;
3379;SDS011;1703;51.964;7.642;2024-01-11T09:34:40;35.83;;;16.73;;
3379;SDS011;1703;51.964;7.642;2024-01-11T09:37:09;39.53;;;17.30;;
3379;SDS011;1703;51.964;7.642;2024-01-11T09:39:35;28.53;;;17.17;;
3379;SDS011;1703;51.964;7.642;2024-01-11T09:42:04;39.23;;;18.77;;
3379;SDS011;1703;51.964;7.642;2024-01-11T09:44:34;42.13;;;16.17;;
3379;SDS011;1703;51.964;7.642;2024-01-11T09:47:02;26.70;;;16.40;;
3379;SDS011;1703;51.964;7.642;2024-01-11T09:49:31;46.53;;;17.63;;
3379;SDS011;1703;51.964;7.642;2024-01-11T09:52:01;33.03;;;16.50;;
3379;SDS011;1703;51.964;7.642;2024-01-11T09:54:29;32.83;;;17.33;;
3379;SDS011;1703;51.964;7.642;2024-01-11T09:56:56;35.37;;;16.00;;
3379;SDS011;1703;51.964;7.642;2024-01-11T09:59:26;31.70;;;15.10;;
3379;SDS011;1703;51.964;7.642;2024-01-11T10:01:53;34.43;;;15.57;;
3379;SDS011;1703;51.964;7.642;2024-01-11T10:04:20;37.40;;;17.67;;
3379;SDS011;1703;51.964;7.642;2024-01-11T10:06:47;30.30;;;16.67;;
3379;SDS011;1703;51.964;7.642;2024-01-11T10:09:17;38.23;;;16.03;;
3379;SDS011;1703;51.964;7.642;2024-01-11T10:11:45;35.90;;;15.77;;
3379;SDS011;1703;51.964;7.642;2024-01-11T10:14:12;28.00;;;15.60;;
3379;SDS011;1703;51.964;7.642;2024-01-11T10:16:39;26.70;;;14.87;;
3379;SDS011;1703;51.964;7.642;2024-01-11T10:19:08;34.77;;;16.80;;
3379;SDS011;1703;51.964;7.642;2024-01-11T10:21:37;25.47;;;14.67;;
3379;SDS011;1703;51.964;7.642;2024-01-11T10:24:05;30.17;;;15.50;;
3379;SDS011;1703;51.964;7.642;2024-01-11T10:26:33;27.07;;;13.67;;
3379;SDS011;1703;51.964;7.642;2024-01-11T10:29:01;29.33;;;13.50;;
3379;SDS011;1703;51.964;7.642;2024-01-11T10:31:31;28.43;;;15.50;;
3379;SDS011;1703;51.964;7.642;2024-01-11T10:33:59;31.80;;;16.23;;
3379;SDS011;1703;51.964;7.642;2024-01-11T10:36:27;35.93;;;16.90;;
3379;SDS011;1703;51.964;7.642;2024-01-11T10:38:57;40.73;;;16.17;;
3379;SDS011;1703;51.964;7.642;2024-01-11T10:41:27;25.40;;;15.53;;
3379;SDS011;1703;51.964;7.642;2024-01-11T10:43:56;28.00;;;14.77;;
3379;SDS011;1703;51.964;7.642;2024-01-11T10:46:25;28.70;;;13.67;;
3379;SDS011;1703;51.964;7.642;2024-01-11T10:48:55;32.17;;;16.20;;
3379;SDS011;1703;51.964;7.642;2024-01-11T10:51:24;26.67;;;13.40;;
3379;SDS011;1703;51.964;7.642;2024-01-11T10:53:54;22.90;;;13.20;;
3379;SDS011;1703;51.964;7.642;2024-01-11T10:56:23;29.77;;;15.70;;
3379;SDS011;1703;51.964;7.642;2024-01-11T10:58:50;24.00;;;14.00;;
3379;SDS011;1703;51.964;7.642;2024-01-11T11:01:19;19.33;;;12.40;;
3379;SDS011;1703;51.964;7.642;2024-01-11T11:03:47;28.10;;;13.27;;
3379;SDS011;1703;51.964;7.642;2024-01-11T11:06:17;23.00;;;11.87;;
3379;SDS011;1703;51.964;7.642;2024-01-11T11:08:46;31.30;;;15.73;;
3379;SDS011;1703;51.964;7.642;2024-01-11T11:11:15;22.23;;;13.50;;
3379;SDS011;1703;51.964;7.642;2024-01-11T11:13:44;31.13;;;14.07;;
3379;SDS011;1703;51.964;7.642;2024-01-11T11:16:14;18.43;;;12.67;;
3379;SDS011;1703;51.964;7.642;2024-01-11T11:18:42;27.43;;;12.00;;
3379;SDS011;1703;51.964;7.642;2024-01-11T11:21:09;29.83;;;14.57;;
3379;SDS011;1703;51.964;7.642;2024-01-11T11:23:36;24.17;;;14.47;;
3379;SDS011;1703;51.964;7.642;2024-01-11T11:26:05;23.97;;;12.10;;
3379;SDS011;1703;51.964;7.642;2024-01-11T11:28:33;22.80;;;12.47;;
3379;SDS011;1703;51.964;7.642;2024-01-11T11:31:02;22.43;;;11.90;;
3379;SDS011;1703;51.964;7.642;2024-01-11T11:33:29;29.33;;;14.10;;
3379;SDS011;1703;51.964;7.642;2024-01-11T11:35:58;26.30;;;12.80;;
3379;SDS011;1703;51.964;7.642;2024-01-11T11:38:25;29.83;;;13.50;;
3379;SDS011;1703;51.964;7.642;2024-01-11T11:40:53;22.60;;;12.33;;
3379;SDS011;1703;51.964;7.642;2024-01-11T11:43:22;32.40;;;12.77;;
3379;SDS011;1703;51.964;7.642;2024-01-11T11:45:50;27.43;;;15.20;;
3379;SDS011;1703;51.964;7.642;2024-01-11T11:51:19;26.77;;;13.83;;
3379;SDS011;1703;51.964;7.642;2024-01-11T11:53:46;24.73;;;13.33;;
3379;SDS011;1703;51.964;7.642;2024-01-11T11:56:16;26.83;;;13.13;;
3379;SDS011;1703;51.964;7.642;2024-01-11T11:58:43;25.60;;;14.77;;
3379;SDS011;1703;51.964;7.642;2024-01-11T12:01:11;24.73;;;12.77;;
3379;SDS011;1703;51.964;7.642;2024-01-11T12:03:43;19.77;;;12.40;;
3379;SDS011;1703;51.964;7.642;2024-01-11T12:06:14;20.73;;;12.03;;
3379;SDS011;1703;51.964;7.642;2024-01-11T12:08:43;23.63;;;11.77;;
3379;SDS011;1703;51.964;7.642;2024-01-11T12:11:14;23.17;;;14.47;;
3379;SDS011;1703;51.964;7.642;2024-01-11T12:13:45;19.63;;;12.33;;
3379;SDS011;1703;51.964;7.642;2024-01-11T12:16:14;23.33;;;11.87;;
3379;SDS011;1703;51.964;7.642;2024-01-11T12:18:41;25.07;;;12.37;;
3379;SDS011;1703;51.964;7.642;2024-01-11T12:21:11;21.90;;;11.53;;
3379;SDS011;1703;51.964;7.642;2024-01-11T12:23:40;22.03;;;11.60;;
3379;SDS011;1703;51.964;7.642;2024-01-11T12:26:09;24.73;;;12.73;;
3379;SDS011;1703;51.964;7.642;2024-01-11T12:28:38;23.03;;;12.57;;
3379;SDS011;1703;51.964;7.642;2024-01-11T12:31:06;25.77;;;11.23;;
3379;SDS011;1703;51.964;7.642;2024-01-11T12:33:33;25.97;;;12.03;;
3379;SDS011;1703;51.964;7.642;2024-01-11T12:36:03;20.87;;;12.40;;
3379;SDS011;1703;51.964;7.642;2024-01-11T12:38:32;29.87;;;13.33;;
3379;SDS011;1703;51.964;7.642;2024-01-11T12:41:00;27.83;;;13.60;;
3379;SDS011;1703;51.964;7.642;2024-01-11T12:43:30;21.90;;;11.57;;
3379;SDS011;1703;51.964;7.642;2024-01-11T12:45:57;35.37;;;15.10;;
3379;SDS011;1703;51.964;7.642;2024-01-11T12:48:23;20.63;;;12.77;;
3379;SDS011;1703;51.964;7.642;2024-01-11T12:50:50;27.80;;;13.57;;
3379;SDS011;1703;51.964;7.642;2024-01-11T12:53:19;32.67;;;14.03;;
3379;SDS011;1703;51.964;7.642;2024-01-11T12:55:46;26.07;;;13.13;;
3379;SDS011;1703;51.964;7.642;2024-01-11T12:58:13;31.67;;;14.60;;
3379;SDS011;1703;51.964;7.642;2024-01-11T13:00:47;23.20;;;13.23;;
3379;SDS011;1703;51.964;7.642;2024-01-11T13:03:14;23.20;;;12.10;;
3379;SDS011;1703;51.964;7.642;2024-01-11T13:05:41;28.57;;;13.80;;
3379;SDS011;1703;51.964;7.642;2024-01-11T13:08:08;25.77;;;13.50;;
3379;SDS011;1703;51.964;7.642;2024-01-11T13:10:35;25.50;;;12.53;;
3379;SDS011;1703;51.964;7.642;2024-01-11T13:13:02;28.47;;;13.07;;
3379;SDS011;1703;51.964;7.642;2024-01-11T13:15:30;22.03;;;12.07;;
3379;SDS011;1703;51.964;7.642;2024-01-11T13:17:59;20.00;;;10.93;;
3379;SDS011;1703;51.964;7.642;2024-01-11T13:20:26;25.13;;;11.07;;
3379;SDS011;1703;51.964;7.642;2024-01-11T13:23:11;28.83;;;12.50;;
3379;SDS011;1703;51.964;7.642;2024-01-11T13:25:39;25.83;;;12.00;;
3379;SDS011;1703;51.964;7.642;2024-01-11T13:28:07;23.77;;;10.50;;
3379;SDS011;1703;51.964;7.642;2024-01-11T13:30:33;31.73;;;13.60;;
3379;SDS011;1703;51.964;7.642;2024-01-11T13:33:02;14.77;;;9.10;;
3379;SDS011;1703;51.964;7.642;2024-01-11T13:35:29;26.50;;;11.90;;
3379;SDS011;1703;51.964;7.642;2024-01-11T13:37:56;19.17;;;9.87;;
3379;SDS011;1703;51.964;7.642;2024-01-11T13:40:23;22.77;;;11.37;;
3379;SDS011;1703;51.964;7.642;2024-01-11T13:42:50;18.40;;;10.03;;
3379;SDS011;1703;51.964;7.642;2024-01-11T13:45:17;20.73;;;9.37;;
3379;SDS011;1703;51.964;7.642;2024-01-11T13:47:44;18.13;;;10.20;;
3379;SDS011;1703;51.964;7.642;2024-01-11T13:50:12;18.77;;;9.80;;
3379;SDS011;1703;51.964;7.642;2024-01-11T13:52:39;19.50;;;10.20;;
3379;SDS011;1703;51.964;7.642;2024-01-11T13:55:07;27.63;;;11.23;;
3379;SDS011;1703;51.964;7.642;2024-01-11T13:57:35;27.47;;;10.80;;
3379;SDS011;1703;51.964;7.642;2024-01-11T14:00:02;28.70;;;12.33;;
3379;SDS011;1703;51.964;7.642;2024-01-11T14:02:30;40.40;;;12.70;;
3379;SDS011;1703;51.964;7.642;2024-01-11T14:04:57;33.27;;;11.70;;
3379;SDS011;1703;51.964;7.642;2024-01-11T14:07:25;19.73;;;8.93;;
3379;SDS011;1703;51.964;7.642;2024-01-11T14:09:52;19.97;;;12.30;;
3379;SDS011;1703;51.964;7.642;2024-01-11T14:12:19;26.30;;;11.30;;
3379;SDS011;1703;51.964;7.642;2024-01-11T14:14:46;18.37;;;11.43;;
3379;SDS011;1703;51.964;7.642;2024-01-11T14:17:13;25.60;;;13.03;;
3379;SDS011;1703;51.964;7.642;2024-01-11T14:19:39;22.07;;;11.43;;
3379;SDS011;1703;51.964;7.642;2024-01-11T14:22:06;26.80;;;12.90;;
3379;SDS011;1703;51.964;7.642;2024-01-11T14:24:34;23.17;;;12.93;;
3379;SDS011;1703;51.964;7.642;2024-01-11T14:27:01;28.37;;;12.50;;
3379;SDS011;1703;51.964;7.642;2024-01-11T14:29:28;31.67;;;14.10;;
3379;SDS011;1703;51.964;7.642;2024-01-11T14:31:55;22.60;;;11.10;;
3379;SDS011;1703;51.964;7.642;2024-01-11T14:34:22;23.13;;;12.70;;
3379;SDS011;1703;51.964;7.642;2024-01-11T14:36:49;27.00;;;12.03;;
3379;SDS011;1703;51.964;7.642;2024-01-11T14:39:16;30.57;;;11.23;;
3379;SDS011;1703;51.964;7.642;2024-01-11T14:41:44;33.17;;;12.63;;
3379;SDS011;1703;51.964;7.642;2024-01-11T14:44:11;28.67;;;11.23;;
3379;SDS011;1703;51.964;7.642;2024-01-11T14:46:38;22.53;;;12.10;;
3379;SDS011;1703;51.964;7.642;2024-01-11T14:49:07;26.07;;;12.20;;
3379;SDS011;1703;51.964;7.642;2024-01-11T14:51:34;32.17;;;12.40;;
3379;SDS011;1703;51.964;7.642;2024-01-11T14:54:02;23.03;;;12.60;;